createdAt,value
2023-07-27T00:02:18.803Z,25.17
2023-07-27T00:04:45.977Z,25.16
2023-07-27T00:07:13.407Z,25.15
2023-07-27T00:09:40.655Z,25.14
2023-07-27T00:12:08.202Z,25.15
2023-07-27T00:14:35.486Z,25.14
2023-07-27T00:17:02.712Z,25.13
2023-07-27T00:19:30.635Z,25.11
2023-07-27T00:21:57.799Z,25.12
2023-07-27T00:24:24.963Z,25.08
2023-07-27T00:26:52.135Z,25.07
2023-07-27T00:29:20.130Z,25.04
2023-07-27T00:31:47.271Z,25.03
2023-07-27T00:34:14.410Z,25.01
2023-07-27T00:36:43.308Z,24.99
2023-07-27T00:39:13.600Z,24.97
2023-07-27T00:41:41.693Z,24.96
2023-07-27T00:44:08.863Z,24.94
2023-07-27T00:46:37.471Z,24.89
2023-07-27T00:49:05.257Z,24.83
2023-07-27T00:51:36.434Z,24.79
2023-07-27T00:54:04.257Z,24.76
2023-07-27T00:56:32.430Z,24.73
2023-07-27T00:59:03.041Z,24.71
2023-07-27T01:01:30.467Z,24.68
2023-07-27T01:03:57.726Z,24.64
2023-07-27T01:06:25.135Z,24.64
2023-07-27T01:08:52.842Z,24.60
2023-07-27T01:11:23.565Z,24.62
2023-07-27T01:14:12.783Z,24.58
2023-07-27T01:16:50.274Z,24.55
2023-07-27T01:19:56.067Z,24.49
2023-07-27T01:23:07.702Z,24.45
2023-07-27T01:26:12.152Z,24.42
2023-07-27T01:29:05.617Z,24.38
2023-07-27T01:31:42.548Z,24.37
2023-07-27T01:34:17.023Z,24.36
2023-07-27T01:36:44.513Z,24.32
2023-07-27T01:39:11.728Z,24.30
2023-07-27T01:41:42.750Z,24.31
2023-07-27T01:44:10.958Z,24.28
2023-07-27T01:46:38.481Z,24.27
2023-07-27T01:49:05.835Z,24.24
2023-07-27T01:51:32.963Z,24.21
2023-07-27T01:54:00.672Z,24.20
2023-07-27T01:56:27.836Z,24.15
2023-07-27T01:58:55.076Z,24.11
2023-07-27T02:01:22.383Z,24.10
2023-07-27T02:03:49.709Z,24.07
2023-07-27T02:06:16.969Z,24.05
2023-07-27T02:08:44.217Z,24.05
2023-07-27T02:11:12.418Z,24.03
2023-07-27T02:13:43.713Z,24.01
2023-07-27T02:16:51.111Z,23.98
2023-07-27T02:19:18.245Z,23.93
2023-07-27T02:21:45.800Z,23.91
2023-07-27T02:24:12.903Z,23.90
2023-07-27T02:26:40.328Z,23.89
2023-07-27T02:29:07.916Z,23.88
2023-07-27T02:31:35.076Z,23.90
2023-07-27T02:34:02.276Z,23.90
2023-07-27T02:36:31.557Z,23.90
2023-07-27T02:38:59.196Z,23.91
2023-07-27T02:41:26.482Z,23.89
2023-07-27T02:43:54.596Z,23.88
2023-07-27T02:46:25.612Z,23.87
2023-07-27T02:48:54.743Z,23.87
2023-07-27T02:51:22.542Z,23.87
2023-07-27T02:53:49.757Z,23.86
2023-07-27T02:56:22.493Z,23.86
2023-07-27T02:58:51.312Z,23.85
2023-07-27T03:01:19.848Z,23.87
2023-07-27T03:03:53.348Z,23.88
2023-07-27T03:06:20.691Z,23.90
2023-07-27T03:08:53.748Z,23.89
2023-07-27T03:11:21.086Z,23.90
2023-07-27T03:13:48.437Z,23.90
2023-07-27T03:16:15.591Z,23.90
2023-07-27T03:18:42.823Z,23.91
2023-07-27T03:21:12.071Z,23.91
2023-07-27T03:23:39.215Z,23.90
2023-07-27T03:26:12.938Z,23.93
2023-07-27T03:28:42.136Z,23.91
2023-07-27T03:31:16.894Z,23.91
2023-07-27T03:33:44.302Z,23.90
2023-07-27T03:36:11.474Z,23.91
2023-07-27T03:38:38.664Z,23.91
2023-07-27T03:41:05.965Z,23.92
2023-07-27T03:43:35.212Z,23.95
2023-07-27T03:46:03.196Z,23.97
2023-07-27T03:48:30.602Z,23.98
2023-07-27T03:51:01.834Z,24.00
2023-07-27T03:53:29.252Z,24.01
2023-07-27T03:55:56.490Z,24.03
2023-07-27T03:58:23.917Z,24.05
2023-07-27T04:00:51.203Z,24.08
2023-07-27T04:03:19.453Z,24.09
2023-07-27T04:05:46.626Z,24.11
2023-07-27T04:08:14.018Z,24.13
2023-07-27T04:10:41.682Z,24.15
2023-07-27T04:13:08.907Z,24.17
2023-07-27T04:15:36.337Z,24.21
2023-07-27T04:18:03.777Z,24.24
2023-07-27T04:20:31.057Z,24.27
2023-07-27T04:22:58.253Z,24.31
2023-07-27T04:25:25.588Z,24.34
2023-07-27T04:27:52.793Z,24.38
2023-07-27T04:30:20.271Z,24.40
2023-07-27T04:32:47.764Z,24.45
2023-07-27T04:35:14.974Z,24.48
2023-07-27T04:37:42.152Z,24.52
2023-07-27T04:40:09.560Z,24.56
2023-07-27T04:42:37.094Z,24.62
2023-07-27T04:45:04.612Z,24.67
2023-07-27T04:47:33.943Z,24.72
2023-07-27T04:50:01.169Z,24.76
2023-07-27T04:52:29.248Z,24.80
2023-07-27T04:54:56.554Z,24.86
2023-07-27T04:57:23.788Z,24.89
2023-07-27T04:59:51.364Z,24.95
2023-07-27T05:02:18.538Z,24.99
2023-07-27T05:04:45.787Z,25.04
2023-07-27T05:07:13.021Z,25.10
2023-07-27T05:09:40.294Z,25.14
2023-07-27T05:12:07.856Z,25.19
2023-07-27T05:14:36.740Z,25.25
2023-07-27T05:17:04.130Z,25.31
2023-07-27T05:19:31.443Z,25.35
2023-07-27T05:21:58.588Z,25.44
2023-07-27T05:24:26.116Z,25.50
2023-07-27T05:26:53.355Z,25.55
2023-07-27T05:29:20.555Z,25.61
2023-07-27T05:31:48.679Z,25.67
2023-07-27T05:34:16.355Z,25.72
2023-07-27T05:36:43.579Z,25.77
2023-07-27T05:39:10.828Z,25.79
2023-07-27T05:41:38.061Z,25.86
2023-07-27T05:44:08.060Z,25.91
2023-07-27T05:46:35.738Z,25.96
2023-07-27T05:49:05.033Z,25.99
2023-07-27T05:51:32.664Z,26.05
2023-07-27T05:53:59.987Z,26.09
2023-07-27T05:56:27.205Z,26.13
2023-07-27T05:58:54.433Z,26.18
2023-07-27T06:01:22.251Z,26.22
2023-07-27T06:04:05.334Z,26.26
2023-07-27T06:06:34.469Z,26.24
2023-07-27T06:09:01.878Z,26.31
2023-07-27T06:11:29.252Z,26.38
2023-07-27T06:13:56.743Z,26.43
2023-07-27T06:16:25.740Z,26.49
2023-07-27T06:18:53.062Z,26.51
2023-07-27T06:21:20.428Z,26.54
2023-07-27T06:23:47.637Z,26.59
2023-07-27T06:26:15.035Z,26.62
2023-07-27T06:28:42.206Z,26.65
2023-07-27T06:31:09.763Z,26.69
2023-07-27T06:33:36.870Z,26.73
2023-07-27T06:36:04.329Z,26.77
2023-07-27T06:38:31.650Z,26.87
2023-07-27T06:40:58.783Z,26.88
2023-07-27T06:43:26.083Z,26.93
2023-07-27T06:45:53.308Z,27.00
2023-07-27T06:48:20.535Z,27.07
2023-07-27T06:50:47.756Z,27.14
2023-07-27T06:53:15.040Z,27.21
2023-07-27T06:55:42.745Z,27.30
2023-07-27T06:58:09.999Z,27.36
2023-07-27T07:00:37.523Z,27.45
2023-07-27T07:03:04.914Z,27.55
2023-07-27T07:05:32.128Z,27.62
2023-07-27T07:07:59.803Z,27.69
2023-07-27T07:10:27.170Z,27.72
2023-07-27T07:12:54.330Z,27.76
2023-07-27T07:15:21.658Z,27.80
2023-07-27T07:17:48.947Z,27.84
2023-07-27T07:20:16.284Z,27.92
2023-07-27T07:22:43.566Z,28.00
2023-07-27T07:25:10.894Z,28.08
2023-07-27T07:27:38.442Z,28.16
2023-07-27T07:30:06.259Z,28.21
2023-07-27T07:32:35.121Z,28.29
2023-07-27T07:35:03.027Z,28.37
2023-07-27T07:37:30.391Z,28.44
2023-07-27T07:39:57.773Z,28.51
2023-07-27T07:42:24.995Z,28.58
2023-07-27T07:44:52.322Z,28.64
2023-07-27T07:47:19.530Z,28.68
2023-07-27T07:49:46.823Z,28.74
2023-07-27T07:52:14.868Z,28.80
2023-07-27T07:54:42.150Z,28.87
2023-07-27T07:57:09.389Z,28.97
2023-07-27T07:59:36.880Z,29.06
2023-07-27T08:02:04.593Z,29.15
2023-07-27T08:04:32.145Z,29.25
2023-07-27T08:06:59.513Z,29.32
2023-07-27T08:09:26.853Z,29.37
2023-07-27T08:11:54.358Z,29.45
2023-07-27T08:14:21.650Z,29.53
2023-07-27T08:16:49.058Z,29.62
2023-07-27T08:19:16.362Z,29.68
2023-07-27T08:21:43.602Z,29.77
2023-07-27T08:24:11.005Z,29.81
2023-07-27T08:26:38.227Z,29.89
2023-07-27T08:29:05.451Z,29.98
2023-07-27T08:31:33.228Z,30.04
2023-07-27T08:34:00.442Z,30.12
2023-07-27T08:36:27.747Z,30.18
2023-07-27T08:38:55.024Z,30.24
2023-07-27T08:41:22.793Z,30.33
2023-07-27T08:43:52.218Z,30.43
2023-07-27T08:46:20.358Z,30.52
2023-07-27T08:48:47.727Z,30.59
2023-07-27T08:51:15.386Z,30.64
2023-07-27T08:53:42.699Z,30.70
2023-07-27T08:56:10.132Z,30.77
2023-07-27T08:58:37.470Z,30.83
2023-07-27T09:01:04.599Z,30.91
2023-07-27T09:03:31.949Z,30.99
2023-07-27T09:06:00.445Z,31.06
2023-07-27T09:08:29.208Z,31.11
2023-07-27T09:11:04.636Z,31.20
2023-07-27T09:13:32.685Z,31.26
2023-07-27T09:16:01.322Z,31.27
2023-07-27T09:18:28.596Z,31.31
2023-07-27T09:20:56.708Z,31.36
2023-07-27T09:23:23.881Z,31.41
2023-07-27T09:25:57.359Z,31.49
2023-07-27T09:28:26.150Z,31.58
2023-07-27T09:30:55.960Z,31.68
2023-07-27T09:33:23.843Z,31.77
2023-07-27T09:35:51.385Z,31.89
2023-07-27T09:38:27.310Z,31.98
2023-07-27T09:40:54.689Z,32.05
2023-07-27T09:43:25.969Z,32.14
2023-07-27T09:46:00.347Z,32.18
2023-07-27T09:48:31.114Z,32.23
2023-07-27T09:50:59.814Z,32.24
2023-07-27T09:53:29.803Z,32.24
2023-07-27T09:55:57.762Z,32.27
2023-07-27T09:58:24.911Z,32.29
2023-07-27T10:00:52.116Z,32.30
2023-07-27T10:03:19.331Z,32.34
2023-07-27T10:05:46.604Z,32.39
2023-07-27T10:08:13.843Z,32.43
2023-07-27T10:10:41.868Z,32.49
2023-07-27T10:13:13.008Z,32.61
2023-07-27T10:15:43.995Z,32.69
2023-07-27T10:18:15.336Z,32.76
2023-07-27T10:20:42.763Z,32.82
2023-07-27T10:23:21.641Z,32.90
2023-07-27T10:25:57.910Z,32.98
2023-07-27T10:28:37.550Z,33.01
2023-07-27T10:31:26.967Z,33.05
2023-07-27T10:33:57.300Z,33.11
2023-07-27T10:36:48.139Z,33.09
2023-07-27T10:39:16.844Z,33.10
2023-07-27T10:42:07.254Z,33.15
2023-07-27T10:44:57.755Z,33.21
2023-07-27T10:47:29.099Z,33.31
2023-07-27T10:49:57.329Z,33.37
2023-07-27T10:52:32.319Z,33.41
2023-07-27T10:55:01.312Z,33.45
2023-07-27T10:57:33.413Z,33.49
2023-07-27T11:00:01.172Z,33.61
2023-07-27T11:02:37.369Z,33.63
2023-07-27T11:05:08.770Z,33.64
2023-07-27T11:07:40.330Z,33.66
2023-07-27T11:10:09.667Z,33.68
2023-07-27T11:12:50.355Z,33.69
2023-07-27T11:15:27.588Z,33.72
2023-07-27T11:17:56.012Z,33.82
2023-07-27T11:20:24.471Z,33.90
2023-07-27T11:22:52.548Z,33.95
2023-07-27T11:25:20.326Z,34.00
2023-07-27T11:27:49.670Z,34.07
2023-07-27T11:30:18.918Z,34.13
2023-07-27T11:33:18.768Z,34.18
2023-07-27T11:35:46.816Z,34.24
2023-07-27T11:38:14.134Z,34.25
2023-07-27T11:40:49.016Z,34.25
2023-07-27T11:43:16.212Z,34.30
2023-07-27T11:45:45.229Z,34.33
2023-07-27T11:48:13.749Z,34.34
2023-07-27T11:50:41.116Z,34.36
2023-07-27T11:53:17.483Z,34.32
2023-07-27T11:55:50.293Z,34.19
2023-07-27T11:58:17.770Z,34.14
2023-07-27T12:00:51.987Z,34.10
2023-07-27T12:03:23.590Z,34.09
2023-07-27T12:05:57.575Z,34.11
2023-07-27T12:13:59.023Z,34.15
2023-07-27T12:23:47.466Z,34.34
2023-07-27T12:28:45.106Z,34.45
2023-07-27T12:31:16.833Z,34.48
2023-07-27T12:34:00.678Z,34.55
2023-07-27T12:36:28.001Z,34.53
2023-07-27T12:38:55.290Z,34.51
2023-07-27T12:41:22.637Z,34.51
2023-07-27T12:43:49.885Z,34.48
2023-07-27T12:46:17.049Z,34.35
2023-07-27T12:48:45.072Z,34.27
2023-07-27T12:51:12.611Z,34.25
2023-07-27T12:53:41.730Z,34.22
2023-07-27T12:56:10.451Z,34.20
2023-07-27T12:58:37.668Z,34.17
2023-07-27T13:01:04.838Z,34.16
2023-07-27T13:03:32.275Z,34.11
2023-07-27T13:06:01.906Z,34.07
2023-07-27T13:08:30.019Z,34.04
2023-07-27T13:10:57.449Z,34.04
2023-07-27T13:13:24.688Z,34.06
2023-07-27T13:15:51.903Z,34.02
2023-07-27T13:18:19.052Z,33.91
2023-07-27T13:20:46.301Z,33.84
2023-07-27T13:23:13.451Z,33.78
2023-07-27T13:25:40.874Z,33.70
2023-07-27T13:28:08.189Z,33.63
2023-07-27T13:30:35.392Z,33.54
2023-07-27T13:33:02.849Z,33.45
2023-07-27T13:35:30.574Z,33.40
2023-07-27T13:37:57.976Z,33.34
2023-07-27T13:40:25.103Z,33.26
2023-07-27T13:42:53.835Z,33.17
2023-07-27T13:45:21.042Z,33.04
2023-07-27T13:48:02.432Z,32.86
2023-07-27T13:50:36.340Z,32.68
2023-07-27T13:53:05.458Z,32.58
2023-07-27T13:55:32.803Z,32.51
2023-07-27T13:58:00.361Z,32.46
2023-07-27T14:00:27.567Z,32.38
2023-07-27T14:02:56.546Z,32.32
2023-07-27T14:05:23.990Z,32.24
2023-07-27T14:07:51.270Z,32.16
2023-07-27T14:10:18.527Z,32.05
2023-07-27T14:12:45.814Z,31.94
2023-07-27T14:15:12.999Z,31.92
2023-07-27T14:17:40.200Z,31.88
2023-07-27T14:20:08.493Z,31.91
2023-07-27T14:22:37.036Z,31.89
2023-07-27T14:25:04.700Z,31.87
2023-07-27T14:30:04.361Z,31.85
2023-07-27T14:32:32.567Z,31.84
2023-07-27T14:34:59.896Z,31.81
2023-07-27T14:37:27.280Z,31.77
2023-07-27T14:39:54.527Z,31.74
2023-07-27T14:42:22.299Z,31.67
2023-07-27T14:44:50.780Z,31.69
2023-07-27T14:47:18.062Z,31.66
2023-07-27T14:49:57.332Z,31.64
2023-07-27T14:52:27.890Z,31.63
2023-07-27T14:54:57.492Z,31.66
2023-07-27T14:57:24.850Z,31.65
2023-07-27T15:02:28.159Z,31.64
2023-07-27T15:04:56.033Z,31.59
2023-07-27T15:07:23.459Z,31.53
2023-07-27T15:09:51.519Z,31.50
2023-07-27T15:12:18.753Z,31.46
2023-07-27T15:14:46.256Z,31.42
2023-07-27T15:17:13.519Z,31.39
2023-07-27T15:19:42.106Z,31.33
2023-07-27T15:22:09.337Z,31.24
2023-07-27T15:24:36.567Z,31.19
2023-07-27T15:27:04.288Z,31.13
2023-07-27T15:29:31.567Z,31.09
2023-07-27T15:31:58.802Z,31.04
2023-07-27T15:34:25.941Z,31.00
2023-07-27T15:36:53.129Z,30.97
2023-07-27T15:39:20.570Z,30.93
2023-07-27T15:41:47.749Z,30.90
2023-07-27T15:44:15.042Z,30.89
2023-07-27T15:46:42.783Z,30.90
2023-07-27T15:49:09.969Z,30.87
2023-07-27T15:51:37.397Z,30.84
2023-07-27T15:54:04.604Z,30.73
2023-07-27T15:56:32.115Z,30.67
2023-07-27T15:58:59.836Z,30.62
2023-07-27T16:01:31.221Z,30.58
2023-07-27T16:03:58.409Z,30.51
2023-07-27T16:06:25.713Z,30.42
2023-07-27T16:08:52.942Z,30.38
2023-07-27T16:11:20.186Z,30.32
2023-07-27T16:13:47.758Z,30.29
2023-07-27T16:16:15.047Z,30.23
2023-07-27T16:18:42.222Z,30.18
2023-07-27T16:21:09.584Z,30.17
2023-07-27T16:23:36.810Z,30.09
2023-07-27T16:26:05.486Z,30.03
2023-07-27T16:28:32.752Z,29.98
2023-07-27T16:31:00.796Z,29.93
2023-07-27T16:33:28.093Z,29.89
2023-07-27T16:35:55.379Z,29.89
2023-07-27T16:38:22.603Z,29.86
2023-07-27T16:40:54.219Z,29.85
2023-07-27T16:43:21.528Z,29.81
2023-07-27T16:45:48.715Z,29.79
2023-07-27T16:48:17.214Z,29.79
2023-07-27T16:50:45.971Z,29.76
2023-07-27T16:53:13.958Z,29.70
2023-07-27T16:55:42.308Z,29.65
2023-07-27T16:58:09.951Z,29.57
2023-07-27T17:00:37.233Z,29.49
2023-07-27T17:03:04.742Z,29.37
2023-07-27T17:05:40.721Z,29.23
2023-07-27T17:08:09.596Z,29.11
2023-07-27T17:10:37.086Z,28.98
2023-07-27T17:13:04.439Z,28.81
2023-07-27T17:15:32.310Z,28.65
2023-07-27T17:17:59.648Z,28.54
2023-07-27T17:20:27.068Z,28.48
2023-07-27T17:22:54.337Z,28.42
2023-07-27T17:25:21.594Z,28.35
2023-07-27T17:27:48.840Z,28.29
2023-07-27T17:30:16.291Z,28.28
2023-07-27T17:32:43.645Z,28.33
2023-07-27T17:35:11.384Z,28.34
2023-07-27T17:37:38.692Z,28.32
2023-07-27T17:40:06.818Z,28.27
2023-07-27T17:42:34.201Z,28.24
2023-07-27T17:45:03.013Z,28.21
2023-07-27T17:47:30.372Z,28.18
2023-07-27T17:49:59.595Z,28.18
2023-07-27T17:52:27.026Z,28.15
2023-07-27T17:54:54.271Z,28.10
2023-07-27T17:57:21.427Z,28.04
2023-07-27T17:59:48.581Z,28.04
2023-07-27T18:02:15.817Z,28.06
2023-07-27T18:04:42.943Z,28.06
2023-07-27T18:07:10.107Z,28.03
2023-07-27T18:09:37.862Z,27.98
2023-07-27T18:12:05.677Z,27.89
2023-07-27T18:14:33.308Z,27.87
2023-07-27T18:17:00.576Z,27.81
2023-07-27T18:19:27.927Z,27.78
2023-07-27T18:21:56.508Z,27.77
2023-07-27T18:24:28.740Z,27.79
2023-07-27T18:26:58.193Z,27.84
2023-07-27T18:29:25.802Z,27.77
2023-07-27T18:31:53.089Z,27.37
2023-07-27T18:34:20.754Z,26.96
2023-07-27T18:36:47.930Z,26.51
2023-07-27T18:39:15.091Z,26.07
2023-07-27T18:41:42.231Z,25.74
2023-07-27T18:44:09.677Z,25.20
2023-07-27T18:46:37.016Z,24.95
2023-07-27T18:49:04.310Z,24.66
2023-07-27T18:51:32.005Z,24.20
2023-07-27T18:53:59.673Z,23.95
2023-07-27T18:56:27.160Z,23.74
2023-07-27T18:58:54.661Z,23.63
2023-07-27T19:01:21.998Z,23.54
2023-07-27T19:03:50.383Z,23.61
2023-07-27T19:06:18.372Z,23.66
2023-07-27T19:09:11.844Z,23.63
2023-07-27T19:11:40.353Z,23.60
2023-07-27T19:14:08.540Z,23.53
2023-07-27T19:16:37.180Z,23.46
2023-07-27T19:19:06.284Z,23.46
2023-07-27T19:21:34.390Z,23.40
2023-07-27T19:24:02.311Z,23.36
2023-07-27T19:26:30.998Z,23.24
2023-07-27T19:28:58.565Z,23.25
2023-07-27T19:31:26.302Z,23.11
2023-07-27T19:33:53.866Z,23.11
2023-07-27T19:36:21.665Z,23.07
2023-07-27T19:38:48.975Z,22.99
2023-07-27T19:41:17.315Z,22.95
2023-07-27T19:43:44.784Z,22.95
2023-07-27T19:46:12.047Z,22.97
2023-07-27T19:48:39.719Z,22.97
2023-07-27T19:51:06.892Z,22.94
2023-07-27T19:53:34.088Z,22.95
2023-07-27T19:56:04.610Z,22.93
2023-07-27T19:58:32.266Z,22.92
2023-07-27T20:01:00.045Z,22.95
2023-07-27T20:03:28.150Z,22.89
2023-07-27T20:05:55.629Z,22.86
2023-07-27T20:08:35.887Z,22.87
2023-07-27T20:11:03.778Z,22.91
2023-07-27T20:13:31.026Z,22.92
2023-07-27T20:15:58.214Z,22.93
2023-07-27T20:18:25.584Z,23.00
2023-07-27T20:20:52.826Z,23.07
2023-07-27T20:23:21.296Z,23.11
2023-07-27T20:25:48.770Z,23.12
2023-07-27T20:28:16.017Z,23.14
2023-07-27T20:30:43.235Z,23.10
2023-07-27T20:33:10.479Z,23.08
2023-07-27T20:35:38.020Z,23.09
2023-07-27T20:38:05.301Z,23.05
2023-07-27T20:40:33.547Z,23.03
2023-07-27T20:43:00.889Z,22.99
2023-07-27T20:45:28.357Z,22.97
2023-07-27T20:47:55.642Z,22.93
2023-07-27T20:50:22.883Z,22.92
2023-07-27T20:52:50.848Z,22.91
2023-07-27T20:55:18.265Z,22.94
2023-07-27T20:57:48.627Z,22.97
2023-07-27T21:00:16.038Z,22.98
2023-07-27T21:02:43.449Z,22.99
2023-07-27T21:05:10.766Z,22.98
2023-07-27T21:07:38.315Z,22.98
2023-07-27T21:10:05.994Z,22.97
2023-07-27T21:12:33.243Z,22.98
2023-07-27T21:15:01.258Z,22.99
2023-07-27T21:17:30.416Z,22.94
2023-07-27T21:19:57.829Z,22.91
2023-07-27T21:22:25.026Z,22.87
2023-07-27T21:24:52.216Z,22.86
2023-07-27T21:27:19.345Z,22.87
2023-07-27T21:29:46.544Z,22.84
2023-07-27T21:32:13.747Z,22.82
2023-07-27T21:34:40.980Z,22.83
2023-07-27T21:37:08.162Z,22.81
2023-07-27T21:39:35.321Z,22.77
2023-07-27T21:42:02.634Z,22.73
2023-07-27T21:44:30.058Z,22.70
2023-07-27T21:46:57.342Z,22.73
2023-07-27T21:49:24.675Z,22.80
2023-07-27T21:51:51.894Z,22.87
2023-07-27T21:54:19.444Z,22.88
2023-07-27T21:56:46.606Z,22.88
2023-07-27T21:59:13.753Z,22.90
2023-07-27T22:01:40.928Z,22.96
2023-07-27T22:04:08.095Z,22.99
2023-07-27T22:06:35.405Z,22.95
2023-07-27T22:09:04.722Z,22.88
2023-07-27T22:11:31.983Z,22.83
2023-07-27T22:13:59.119Z,22.86
2023-07-27T22:16:26.695Z,22.91
2023-07-27T22:18:53.854Z,22.93
2023-07-27T22:21:20.974Z,22.88
2023-07-27T22:23:48.202Z,22.80
2023-07-27T22:26:18.681Z,22.73
2023-07-27T22:28:45.878Z,22.64
2023-07-27T22:31:14.236Z,22.58
2023-07-27T22:33:41.505Z,22.43
2023-07-27T22:36:09.262Z,22.36
2023-07-27T22:38:37.068Z,22.29
2023-07-27T22:41:04.905Z,22.20
2023-07-27T22:43:32.082Z,22.19
2023-07-27T22:45:59.307Z,22.18
2023-07-27T22:48:26.620Z,22.20
2023-07-27T22:50:53.836Z,22.16
2023-07-27T22:53:21.123Z,22.07
2023-07-27T22:55:50.044Z,22.03
2023-07-27T22:58:17.534Z,21.98
2023-07-27T23:00:44.869Z,21.98
2023-07-27T23:03:12.147Z,21.95
2023-07-27T23:05:39.604Z,21.91
2023-07-27T23:08:07.563Z,21.92
2023-07-27T23:10:34.774Z,21.92
2023-07-27T23:13:02.024Z,21.93
2023-07-27T23:15:29.498Z,21.90
2023-07-27T23:17:57.104Z,21.88
2023-07-27T23:20:24.444Z,21.88
2023-07-27T23:22:51.976Z,21.88
2023-07-27T23:25:19.159Z,21.87
2023-07-27T23:27:46.347Z,21.83
2023-07-27T23:30:13.719Z,21.76
2023-07-27T23:32:41.400Z,21.71
2023-07-27T23:35:09.036Z,21.68
2023-07-27T23:37:36.184Z,21.66
2023-07-27T23:40:03.493Z,21.58
2023-07-27T23:42:30.864Z,21.51
2023-07-27T23:44:58.394Z,21.46
2023-07-27T23:47:25.629Z,21.44
2023-07-27T23:49:52.882Z,21.43
2023-07-27T23:52:20.040Z,21.42
2023-07-27T23:54:47.192Z,21.44
2023-07-27T23:57:14.585Z,21.47
2023-07-27T23:59:41.742Z,21.48
